Terminal Aerodrome Forecast
Issued by NWS

Home | Current Version | Previous Version | Text Only | Print | Product List | Glossary On
Versions: 1 2 3 4 5 6 7 8 9 10 11 12 13 14 15 16 17 18 19 20 21 22 23 24
000
FTUS46 KMTR 250848 AAA
TAFSFO
TAF AMD
KSFO 250848Z 2509/2612 27018G23KT P6SM FEW015
     FM251000 26018KT P6SM FEW012 SCT024
     FM251700 28011KT P6SM FEW012 SCT020 BKN200
     FM252100 28016G23KT P6SM FEW012 BKN150
     FM260400 28012KT P6SM FEW010 BKN150=

USA.gov is the U.S. government's official web portal to all federal, state and local government web resources and services.